Details From ENBR - Bergen Lufthavn Flesland
To ENSO - Sorstokken
Flight Number -
Tags Routegen Generated
Created
Modified
Stats Distance 31 nm / 57 km
Max Altitude 100 ft / 30 m
Waypoints 5
Social Downloads 10
Likes 0
Share VATSIM

Download

Looking for another format? Having issues loading an existing format? Contact us
Advertisement - Login to hide

Notes

Departing runway 17 ENBR. Arriving runway 14 ENSO.

Route

ENBR +60.21_+005.25 +60.06_+005.21 +59.91_+005.17 ENSO

ID Type Via Altitude (ft/m) Position (lat/lon) Dist (leg/tot) Name
O ENBR APT - 0 / 0 60.28015 / 5.22258 - / 0 nm
+60.21_+005.25 DME - 100 / 30 60.20876 / 5.24645 4 / 4 nm
+60.06_+005.21 DME - 100 / 30 60.06165 / 5.20742 8 / 13 nm
+59.91_+005.17 DME - 100 / 30 59.91454 / 5.16840 8 / 22 nm
O ENSO APT - 0 / 0 59.79633 / 5.33469 8 / 30 nm

Altitude Profile

Advertisement - Login to hide

ENBR

Details ICAO ENBR (BGO)
Name Bergen Lufthavn Flesland
Region Norway
Timezone Europe/Oslo (UTC+1.0)
Stats Elevation 166 ft / 51 m (AMSL)
Location 60.293600° 5.218060°
Runways 1
Magnetic Variation 1.237° E

METAR

ENBR 271450Z 13010KT 9999 VCSH FEW010 SCT025 BKN035 00/M00 Q0992 TEMPO 0800 SHSN VV004 RMK WIND 1200FT /////KT

Decode

TAF

TAF AMD ENBR 271245Z 2712/2812 15012KT 9999 FEW007 SCT015TCU BKN020 TEMPO 2712/2715 0500 SN VV004 TEMPO 2715/2812 1200 SHSNRAGS VV008 PROB30 2712/2718 TS BECMG 2803/2806 26007KT

Decode

Departure Runways

ID Width Length Bearing (true/mag) Surface Threshold Overrun Markings Lighting
17 148 ft / 45 m 9,791 ft / 2,984 m 170.53° / 169.29° ASPHALT 876 ft / 267 m 0 ft / 0 m PREC-APP CENTERLINE EDGE THRESHOLD ALSF-II TDZ REIL-OMNI
35 148 ft / 45 m 9,791 ft / 2,984 m 350.53° / 349.30° ASPHALT 889 ft / 271 m 0 ft / 0 m PREC-APP CENTERLINE EDGE THRESHOLD ALSF-I REIL-OMNI

ENSO

Details ICAO ENSO (SRP)
Name Stord Sorstokken
Region Norway
Timezone Europe/Oslo (UTC+1.0)
Stats Elevation 161 ft / 49 m (AMSL)
Location 59.791900° 5.340850°
Runways 1
Magnetic Variation 1.310° E

METAR

ENSO 271450Z 15011KT 9999 SCT034 SCT077 03/M02 Q0993

Decode

TAF

Not found

Destination Runways

ID Width Length Bearing (true/mag) Surface Threshold Overrun Markings Lighting
14 98 ft / 30 m 4,779 ft / 1,457 m 144.82° / 143.51° ASPHALT 230 ft / 70 m 0 ft / 0 m APP EDGE THRESHOLD MALS
32 98 ft / 30 m 4,779 ft / 1,457 m 324.84° / 323.53° ASPHALT 230 ft / 70 m 0 ft / 0 m APP EDGE THRESHOLD MALS

Approach Navaids

Runway Type Ident Frequency Range Bearing (true/mag) Slope Elevation
14 LOC-LOC SRD 110.10 MHz 18 nm / 33 km 144.99° / 143.68 ° - 151 ft / 46 m (AMSL)

Popular Alternatives